Time;durP1;ratioP1;P1;durP2;ratioP2;P2;SDS_P1;SDS_P2;PMS_P1;PMS_P2;Temp;Humidity;BMP_temperature;BMP_pressure;BME280_temperature;BME280_humidity;BME280_pressure;Samples;Min_cycle;Max_cycle;Signal;HPM_P1;HPM_P2
2023/05/08 00:00:25;;;;;;;;;4.00;4.00;;;;;21.12;43.99;102224.58;110241;1251;20149;-38
2023/05/08 00:03:12;;;;;;;;;7.00;7.00;;;;;21.12;44.05;102224.07;110265;1250;23441;-38
2023/05/08 00:05:39;;;;;;;;;6.00;6.00;;;;;21.12;44.02;102224.95;110109;1265;18514;-38
2023/05/08 00:08:07;;;;;;;;;5.00;5.00;;;;;21.13;44.09;102229.97;110196;1265;22495;-38
2023/05/08 00:10:34;;;;;;;;;7.33;5.00;;;;;21.13;44.23;102231.44;110251;1265;19313;-38
2023/05/08 00:13:01;;;;;;;;;8.00;8.00;;;;;21.12;44.14;102229.66;110260;1260;19691;-38
2023/05/08 00:15:29;;;;;;;;;8.00;8.00;;;;;21.13;44.01;102232.19;110245;1251;20046;-38
2023/05/08 00:17:56;;;;;;;;;5.00;5.00;;;;;21.13;44.13;102227.48;110260;1251;20596;-39
2023/05/08 00:20:23;;;;;;;;;8.00;7.50;;;;;21.13;44.02;102230.17;110280;1251;23923;-38
2023/05/08 00:22:51;;;;;;;;;10.00;8.00;;;;;21.12;44.20;102228.60;110260;1251;19995;-38
2023/05/08 00:25:18;;;;;;;;;7.00;5.00;;;;;21.13;44.07;102224.55;110260;1265;19470;-38
2023/05/08 00:27:45;;;;;;;;;8.00;8.00;;;;;21.13;44.25;102223.43;110250;1265;18626;-39
2023/05/08 00:30:13;;;;;;;;;10.00;8.00;;;;;21.13;44.19;102221.83;110211;1251;20065;-38
2023/05/08 00:32:40;;;;;;;;;8.00;8.00;;;;;21.13;44.20;102223.64;110261;1265;19333;-39
2023/05/08 00:35:08;;;;;;;;;8.00;8.00;;;;;21.13;44.24;102223.80;110273;1251;20503;-38
2023/05/08 00:37:36;;;;;;;;;8.00;8.00;;;;;21.13;44.15;102221.59;110262;1251;19074;-38
2023/05/08 00:40:03;;;;;;;;;11.00;10.00;;;;;21.13;44.22;102221.45;110247;1251;20722;-40
2023/05/08 00:42:31;;;;;;;;;11.00;10.00;;;;;21.13;44.00;102225.24;110279;1260;19574;-38
2023/05/08 00:44:58;;;;;;;;;11.00;8.00;;;;;21.12;44.05;102222.98;110185;1251;106958;-38
2023/05/08 00:47:25;;;;;;;;;12.50;10.50;;;;;21.12;44.10;102230.82;110263;1250;20833;-41
2023/05/08 00:49:53;;;;;;;;;13.00;10.50;;;;;21.13;44.19;102229.32;110253;1250;19932;-39
2023/05/08 00:52:20;;;;;;;;;10.00;10.00;;;;;21.13;44.09;102233.59;110245;1265;21799;-38
2023/05/08 00:54:48;;;;;;;;;11.00;10.00;;;;;21.13;44.10;102237.95;110272;1251;20795;-38
2023/05/08 00:57:15;;;;;;;;;11.00;11.00;;;;;21.13;44.02;102234.20;110259;1265;18581;-39
2023/05/08 00:59:44;;;;;;;;;10.00;10.00;;;;;21.12;44.16;102237.33;110245;1265;23460;-39
2023/05/08 01:02:11;;;;;;;;;11.00;11.00;;;;;21.12;44.10;102240.77;110246;1250;20789;-38
2023/05/08 01:04:38;;;;;;;;;11.00;11.00;;;;;21.13;44.11;102246.34;110160;1249;22088;-39
2023/05/08 01:07:06;;;;;;;;;14.00;13.00;;;;;21.12;43.99;102246.23;110006;1250;19764;-39
2023/05/08 01:09:34;;;;;;;;;11.00;10.50;;;;;21.13;44.02;102249.09;110012;1266;19351;-39
2023/05/08 01:12:01;;;;;;;;;11.00;11.00;;;;;21.13;44.30;102247.45;110044;1251;20069;-41
2023/05/08 01:14:29;;;;;;;;;13.00;11.00;;;;;21.11;44.33;102244.70;110042;1260;20139;-39
2023/05/08 01:16:56;;;;;;;;;13.00;11.00;;;;;21.12;44.06;102249.73;110012;1266;19345;-39
2023/05/08 01:19:23;;;;;;;;;11.00;10.00;;;;;21.12;44.12;102251.55;110046;1266;18547;-40
2023/05/08 01:21:51;;;;;;;;;13.00;11.00;;;;;21.11;44.18;102253.45;110032;1266;18733;-39
2023/05/08 01:24:18;;;;;;;;;10.50;10.50;;;;;21.13;44.27;102259.11;110046;1266;19358;-39
2023/05/08 01:26:45;;;;;;;;;10.50;10.00;;;;;21.12;43.98;102262.27;110033;1254;20039;-40
2023/05/08 01:29:13;;;;;;;;;13.50;13.00;;;;;21.12;44.08;102260.95;110029;1266;18784;-39
2023/05/08 01:31:40;;;;;;;;;13.00;11.00;;;;;21.12;44.14;102259.71;110008;1266;22066;-39
2023/05/08 01:34:07;;;;;;;;;13.50;12.50;;;;;21.12;44.08;102257.77;110038;1254;20021;-39
2023/05/08 01:36:35;;;;;;;;;13.00;11.00;;;;;21.12;44.20;102256.61;110040;1251;21687;-39
2023/05/08 01:39:02;;;;;;;;;11.00;10.00;;;;;21.13;44.08;102255.49;109992;1254;20946;-40
2023/05/08 01:41:29;;;;;;;;;11.00;10.00;;;;;21.12;44.30;102257.30;110059;1251;18647;-38
2023/05/08 01:43:57;;;;;;;;;13.50;11.00;;;;;21.12;44.20;102256.63;110046;1266;20055;-39
2023/05/08 01:46:24;;;;;;;;;14.67;11.00;;;;;21.12;44.11;102258.23;110043;1254;20807;-38
2023/05/08 01:48:51;;;;;;;;;13.33;12.33;;;;;21.13;44.02;102259.63;110036;1260;19973;-38
2023/05/08 01:51:19;;;;;;;;;17.00;15.00;;;;;21.13;44.14;102258.74;110057;1252;20193;-38
2023/05/08 01:53:46;;;;;;;;;15.00;13.50;;;;;21.12;44.13;102259.48;110062;1259;20823;-39
2023/05/08 01:56:15;;;;;;;;;13.50;11.00;;;;;21.12;44.16;102263.85;110000;1251;22111;-38
2023/05/08 01:58:43;;;;;;;;;10.00;10.00;;;;;21.13;44.17;102264.17;110038;1253;20094;-38
2023/05/08 02:01:10;;;;;;;;;13.00;13.00;;;;;21.12;44.18;102266.78;110030;1266;19352;-39
2023/05/08 02:03:37;;;;;;;;;14.00;11.00;;;;;21.13;44.27;102272.69;110014;1254;22822;-39
2023/05/08 02:06:05;;;;;;;;;14.00;13.00;;;;;21.13;44.08;102272.52;110142;1251;20129;-39
2023/05/08 02:08:32;;;;;;;;;16.00;14.00;;;;;21.13;44.20;102273.29;110226;1251;22136;-38
2023/05/08 02:10:59;;;;;;;;;14.00;13.00;;;;;21.13;44.21;102271.86;110194;1251;20038;-38
2023/05/08 02:13:27;;;;;;;;;17.67;16.00;;;;;21.12;44.25;102274.07;110239;1251;20117;-40
2023/05/08 02:15:54;;;;;;;;;13.00;13.00;;;;;21.12;44.23;102275.56;110271;1265;22160;-38
2023/05/08 02:18:21;;;;;;;;;14.00;11.00;;;;;21.11;44.03;102277.63;110268;1251;19971;-38
2023/05/08 02:20:49;;;;;;;;;17.00;14.00;;;;;21.12;44.12;102281.38;110265;1259;20310;-39
2023/05/08 02:23:16;;;;;;;;;12.00;11.00;;;;;21.13;44.11;102281.30;110271;1260;20872;-38
2023/05/08 02:25:43;;;;;;;;;16.00;13.00;;;;;21.12;44.15;102280.04;110255;1265;22153;-38
2023/05/08 02:28:11;;;;;;;;;22.00;16.00;;;;;21.12;44.10;102280.80;110239;1251;20189;-38
2023/05/08 02:30:38;;;;;;;;;14.00;13.50;;;;;21.11;44.26;102283.76;110251;1266;19350;-38
2023/05/08 02:33:06;;;;;;;;;14.00;13.00;;;;;21.12;44.27;102283.67;110232;1266;18566;-38
2023/05/08 02:35:34;;;;;;;;;14.00;13.00;;;;;21.11;44.02;102285.75;110222;1260;22184;-38
2023/05/08 02:38:01;;;;;;;;;11.00;11.00;;;;;21.12;44.12;102284.83;110267;1265;22144;-38
2023/05/08 02:40:28;;;;;;;;;14.00;11.00;;;;;21.11;44.16;102286.91;110258;1250;20071;-37
2023/05/08 02:42:56;;;;;;;;;17.00;11.00;;;;;21.11;44.17;102292.36;110251;1251;18736;-39
2023/05/08 02:45:23;;;;;;;;;11.00;11.00;;;;;21.11;44.07;102295.06;110239;1265;19210;-37
2023/05/08 02:47:50;;;;;;;;;18.00;13.50;;;;;21.11;44.25;102295.23;110230;1265;19921;-38
2023/05/08 02:50:18;;;;;;;;;12.33;12.33;;;;;21.10;44.11;102296.76;110086;1265;22602;-38
2023/05/08 02:52:45;;;;;;;;;15.00;13.00;;;;;21.11;44.07;102297.23;110092;1251;20968;-38
2023/05/08 02:55:12;;;;;;;;;19.00;14.00;;;;;21.11;44.20;102301.63;110132;1260;19713;-38
2023/05/08 02:57:40;;;;;;;;;14.00;14.00;;;;;21.11;44.18;102300.91;110157;1250;20203;-38
2023/05/08 03:00:07;;;;;;;;;15.00;14.00;;;;;21.11;44.03;102300.33;110146;1251;21148;-39
2023/05/08 03:02:34;;;;;;;;;14.00;13.00;;;;;21.11;44.27;102301.28;110234;1251;20270;-38
2023/05/08 03:05:02;;;;;;;;;15.00;10.50;;;;;21.11;44.07;102303.77;110250;1251;20178;-39
2023/05/08 03:07:29;;;;;;;;;14.00;13.00;;;;;21.11;44.15;102300.48;110038;1259;19336;-38
2023/05/08 03:09:56;;;;;;;;;13.00;10.00;;;;;21.11;44.02;102297.27;110073;1266;18582;-39
2023/05/08 03:12:24;;;;;;;;;11.00;8.00;;;;;21.12;44.09;102296.45;110024;1250;21092;-38
2023/05/08 03:14:51;;;;;;;;;8.00;8.00;;;;;21.12;44.04;102299.01;110062;1260;19428;-40
2023/05/08 03:17:18;;;;;;;;;12.00;9.33;;;;;21.11;44.07;102301.25;110040;1254;22447;-38
2023/05/08 03:19:46;;;;;;;;;10.00;10.00;;;;;21.11;44.09;102306.15;110041;1266;18827;-38
2023/05/08 03:22:13;;;;;;;;;10.67;8.00;;;;;21.11;43.98;102307.60;110038;1266;22011;-39
2023/05/08 03:24:40;;;;;;;;;10.00;8.00;;;;;21.11;44.01;102308.50;110062;1253;19956;-38
2023/05/08 03:27:08;;;;;;;;;11.00;11.00;;;;;21.11;43.96;102306.31;110031;1253;20081;-38
2023/05/08 03:29:36;;;;;;;;;10.00;10.00;;;;;21.11;43.97;102305.25;110073;1260;19346;-39
2023/05/08 03:32:03;;;;;;;;;10.00;8.00;;;;;21.11;44.13;102306.32;110019;1266;20904;-38
2023/05/08 03:34:30;;;;;;;;;10.00;10.00;;;;;21.11;44.06;102307.27;110041;1266;18621;-38
2023/05/08 03:36:58;;;;;;;;;13.00;11.00;;;;;21.11;43.98;102307.79;110042;1250;22819;-38
2023/05/08 03:39:25;;;;;;;;;8.00;7.00;;;;;21.10;44.18;102309.48;110050;1254;20028;-38
2023/05/08 03:41:52;;;;;;;;;14.00;11.00;;;;;21.10;44.16;102311.15;110034;1260;23141;-38
2023/05/08 03:44:20;;;;;;;;;11.00;10.00;;;;;21.10;43.94;102313.34;110016;1251;19362;-39
2023/05/08 03:46:47;;;;;;;;;10.00;10.00;;;;;21.11;44.13;102316.73;110042;1251;20053;-38
2023/05/08 03:49:15;;;;;;;;;12.00;12.00;;;;;21.11;44.01;102316.33;110065;1266;18745;-38
2023/05/08 03:51:42;;;;;;;;;7.33;7.33;;;;;21.11;44.00;102316.17;110032;1260;20740;-39
2023/05/08 03:54:10;;;;;;;;;7.00;7.00;;;;;21.11;44.12;102310.90;110042;1254;20020;-38
2023/05/08 03:56:37;;;;;;;;;7.67;7.67;;;;;21.10;43.99;102313.66;110059;1266;19862;-39
2023/05/08 03:59:05;;;;;;;;;10.00;9.00;;;;;21.11;43.91;102318.52;110018;1266;19318;-38
2023/05/08 04:01:32;;;;;;;;;7.50;7.50;;;;;21.11;43.93;102321.45;110039;1251;20790;-38
2023/05/08 04:03:59;;;;;;;;;7.67;7.67;;;;;21.11;43.94;102319.06;110032;1251;22207;-38
2023/05/08 04:06:27;;;;;;;;;7.00;7.00;;;;;21.11;44.05;102319.63;110115;1254;21448;-39
2023/05/08 04:08:54;;;;;;;;;11.00;8.00;;;;;21.11;44.06;102326.32;110291;1265;18435;-38
2023/05/08 04:11:21;;;;;;;;;6.33;6.33;;;;;21.11;43.97;102324.85;110283;1265;18653;-39
2023/05/08 04:13:49;;;;;;;;;8.00;7.00;;;;;21.11;43.88;102325.93;110238;1250;19389;-39
2023/05/08 04:16:16;;;;;;;;;7.00;5.00;;;;;21.12;44.00;102329.54;110237;1265;18446;-40
2023/05/08 04:18:43;;;;;;;;;7.00;7.00;;;;;21.12;43.82;102332.61;110290;1251;20071;-38
2023/05/08 04:21:11;;;;;;;;;7.00;5.00;;;;;21.13;43.86;102331.20;110224;1251;20764;-38
2023/05/08 04:23:38;;;;;;;;;7.00;7.00;;;;;21.14;44.08;102338.07;110283;1251;19680;-38
2023/05/08 04:26:05;;;;;;;;;5.00;5.00;;;;;21.13;43.99;102337.03;110272;1260;18510;-38
2023/05/08 04:28:33;;;;;;;;;6.00;6.00;;;;;21.13;44.02;102339.98;110219;1260;20652;-38
2023/05/08 04:31:01;;;;;;;;;5.00;5.00;;;;;21.13;43.92;102345.08;110229;1251;19691;-38
2023/05/08 04:33:28;;;;;;;;;7.00;7.00;;;;;21.13;43.95;102347.02;110262;1251;20213;-38
2023/05/08 04:35:56;;;;;;;;;6.00;5.00;;;;;21.14;44.03;102347.70;110249;1251;22300;-40
2023/05/08 04:38:23;;;;;;;;;6.00;6.00;;;;;21.15;43.80;102355.80;110280;1251;19687;-38
2023/05/08 04:40:50;;;;;;;;;4.33;4.33;;;;;21.15;43.95;102356.34;110253;1265;18617;-38
2023/05/08 04:43:18;;;;;;;;;5.00;5.00;;;;;21.15;43.90;102354.69;110238;1260;23477;-38
2023/05/08 04:45:45;;;;;;;;;5.00;4.00;;;;;21.15;43.82;102354.85;110231;1260;19625;-39
2023/05/08 04:48:12;;;;;;;;;7.67;6.33;;;;;21.16;43.76;102361.48;110251;1251;20073;-38
2023/05/08 04:50:40;;;;;;;;;5.00;5.00;;;;;21.15;43.86;102362.63;110192;1257;20984;-39
2023/05/08 04:53:07;;;;;;;;;4.00;4.00;;;;;21.15;43.87;102365.55;110255;1265;18449;-39
2023/05/08 04:55:34;;;;;;;;;5.00;5.00;;;;;21.16;43.88;102368.80;110294;1265;18619;-38
2023/05/08 04:58:02;;;;;;;;;7.00;5.00;;;;;21.17;44.02;102368.99;110255;1266;19356;-38
2023/05/08 05:00:30;;;;;;;;;4.50;4.50;;;;;21.19;44.16;102374.48;110245;1250;22659;-38
2023/05/08 05:02:57;;;;;;;;;10.00;10.00;;;;;21.23;43.91;102374.63;110262;1260;20038;-38
2023/05/08 05:05:24;;;;;;;;;8.00;8.00;;;;;21.27;44.02;102376.80;110262;1250;20787;-39
2023/05/08 05:07:51;;;;;;;;;48.50;43.00;;;;;21.32;44.48;102376.91;110234;1266;18578;-38
2023/05/08 05:10:19;;;;;;;;;55.50;47.00;;;;;21.36;45.33;102379.46;110236;1265;21792;-38
2023/05/08 05:12:46;;;;;;;;;115.00;108.00;;;;;21.45;45.80;102378.50;110264;1251;20832;-38
2023/05/08 05:15:13;;;;;;;;;86.50;67.50;;;;;21.50;46.67;102377.27;110219;1249;20162;-38
2023/05/08 05:17:41;;;;;;;;;82.00;66.00;;;;;21.52;46.94;102380.70;110251;1265;18735;-39
2023/05/08 05:20:08;;;;;;;;;68.00;55.00;;;;;21.53;46.93;102381.89;110223;1249;20906;-39
2023/05/08 05:22:35;;;;;;;;;60.00;49.00;;;;;21.54;46.73;102378.88;110167;1265;22765;-39
2023/05/08 05:25:03;;;;;;;;;57.00;46.00;;;;;21.56;46.62;102382.30;110209;1265;18706;-39
2023/05/08 05:27:30;;;;;;;;;48.00;45.00;;;;;21.57;46.73;102381.52;110232;1251;22436;-39
2023/05/08 05:29:57;;;;;;;;;43.50;39.00;;;;;21.57;46.68;102382.61;110265;1250;20060;-38
2023/05/08 05:32:25;;;;;;;;;37.00;33.00;;;;;21.54;46.74;102385.23;110220;1251;21558;-39
2023/05/08 05:34:53;;;;;;;;;35.00;33.00;;;;;21.51;46.79;102382.60;110254;1251;20805;-38
2023/05/08 05:37:20;;;;;;;;;28.00;26.50;;;;;21.50;46.65;102388.52;110228;1265;18568;-38
2023/05/08 05:39:47;;;;;;;;;29.00;24.00;;;;;21.48;46.77;102387.27;110261;1250;18599;-38
2023/05/08 05:42:15;;;;;;;;;20.00;20.00;;;;;21.48;46.97;102389.27;110259;1266;20739;-38
2023/05/08 05:44:42;;;;;;;;;22.00;22.00;;;;;21.49;47.08;102388.45;110231;1250;19969;-38
2023/05/08 05:47:09;;;;;;;;;18.50;18.50;;;;;21.50;46.90;102389.31;110190;1251;22677;-38
2023/05/08 05:49:38;;;;;;;;;20.00;20.00;;;;;21.49;46.92;102391.70;110260;1251;20709;-38
2023/05/08 05:52:05;;;;;;;;;20.00;19.50;;;;;21.51;46.81;102390.61;110259;1251;20039;-38
2023/05/08 05:54:33;;;;;;;;;22.00;21.00;;;;;21.53;46.91;102391.21;110244;1251;20144;-39
2023/05/08 05:57:00;;;;;;;;;20.00;18.00;;;;;21.55;46.98;102392.63;110266;1250;20861;-39
2023/05/08 05:59:27;;;;;;;;;19.00;17.50;;;;;21.58;47.06;102393.42;110269;1266;18840;-40
2023/05/08 06:01:55;;;;;;;;;14.00;14.00;;;;;21.59;47.13;102396.80;110231;1266;18715;-39
2023/05/08 06:04:22;;;;;;;;;17.00;15.00;;;;;21.58;46.92;102398.50;110272;1250;22213;-39
2023/05/08 06:06:49;;;;;;;;;15.00;13.50;;;;;21.58;47.08;102403.44;110203;1251;20042;-39
2023/05/08 06:09:17;;;;;;;;;13.00;13.00;;;;;21.57;46.87;102405.74;110201;1257;19948;-38
2023/05/08 06:11:44;;;;;;;;;16.00;14.00;;;;;21.57;46.81;102403.70;110245;1260;20697;-39
2023/05/08 06:14:11;;;;;;;;;11.00;11.00;;;;;21.58;46.69;102407.45;110224;1260;19882;-38
2023/05/08 06:16:39;;;;;;;;;14.67;12.33;;;;;21.58;46.51;102408.11;110229;1266;20218;-38
2023/05/08 06:19:06;;;;;;;;;11.00;11.00;;;;;21.59;46.48;102414.23;110255;1265;19328;-41
2023/05/08 06:21:33;;;;;;;;;11.50;11.50;;;;;21.60;46.42;102414.14;110242;1265;18571;-40
2023/05/08 06:24:01;;;;;;;;;11.00;11.00;;;;;21.62;46.26;102415.63;110258;1251;20068;-39
2023/05/08 06:26:28;;;;;;;;;11.00;10.50;;;;;21.63;46.30;102413.92;110264;1265;22087;-40
2023/05/08 06:28:55;;;;;;;;;10.00;10.00;;;;;21.65;46.38;102415.73;110274;1250;20046;-40
2023/05/08 06:31:23;;;;;;;;;11.00;11.00;;;;;21.66;46.09;102417.25;110249;1259;19877;-39
2023/05/08 06:33:50;;;;;;;;;7.00;7.00;;;;;21.67;46.16;102418.69;110259;1260;21253;-40
2023/05/08 06:36:17;;;;;;;;;8.00;8.00;;;;;21.67;45.95;102420.95;110244;1260;19916;-38
2023/05/08 06:38:45;;;;;;;;;8.00;8.00;;;;;21.69;45.90;102416.63;110264;1260;21185;-40
2023/05/08 06:41:12;;;;;;;;;10.00;8.00;;;;;21.69;45.92;102417.67;110266;1251;22611;-38
2023/05/08 06:43:39;;;;;;;;;5.00;5.00;;;;;21.70;45.66;102411.63;110255;1251;19721;-38
2023/05/08 06:46:07;;;;;;;;;8.00;7.33;;;;;21.71;45.71;102410.27;110231;1249;18642;-38
2023/05/08 06:48:34;;;;;;;;;10.00;8.00;;;;;21.71;45.65;102408.58;110264;1250;19356;-38
2023/05/08 06:51:02;;;;;;;;;9.00;7.00;;;;;21.72;45.72;102411.77;110167;1250;18385;-38
2023/05/08 06:53:29;;;;;;;;;8.00;7.00;;;;;21.76;45.58;102413.58;110039;1266;18548;-39
2023/05/08 06:55:57;;;;;;;;;36.00;34.00;;;;;21.71;45.32;102413.52;110049;1266;19529;-39
2023/05/08 06:58:25;;;;;;;;;50.00;46.00;;;;;21.69;45.27;102413.40;110048;1266;18829;-39
2023/05/08 07:00:52;;;;;;;;;27.00;26.50;;;;;21.65;45.00;102413.02;110032;1260;18876;-38
2023/05/08 07:03:19;;;;;;;;;23.00;23.00;;;;;21.60;44.04;102417.67;110020;1266;21965;-38
2023/05/08 07:05:46;;;;;;;;;21.00;21.00;;;;;21.53;42.71;102413.16;110050;1251;20078;-39
2023/05/08 07:08:14;;;;;;;;;17.00;17.00;;;;;21.48;42.28;102416.39;110025;1260;20000;-39
2023/05/08 07:10:41;;;;;;;;;18.00;17.00;;;;;21.48;41.99;102414.16;110011;1251;22780;-39
2023/05/08 07:13:08;;;;;;;;;17.00;17.00;;;;;21.50;41.42;102421.33;109890;1266;18623;-39
2023/05/08 07:15:37;;;;;;;;;13.00;13.00;;;;;21.53;41.51;102419.33;110033;1250;20798;-40
2023/05/08 07:18:05;;;;;;;;;13.00;13.00;;;;;21.57;41.21;102421.89;110034;1251;20781;-39
2023/05/08 07:20:32;;;;;;;;;11.00;11.00;;;;;21.57;40.73;102420.63;110045;1266;18958;-39
2023/05/08 07:23:00;;;;;;;;;8.00;8.00;;;;;21.58;40.16;102418.88;110033;1266;18690;-39
2023/05/08 07:25:27;;;;;;;;;10.00;10.00;;;;;21.58;40.06;102421.98;110028;1266;19348;-38
2023/05/08 07:27:54;;;;;;;;;10.50;10.50;;;;;21.56;39.77;102416.34;110008;1266;18541;-39
2023/05/08 07:30:22;;;;;;;;;10.00;8.00;;;;;21.56;39.19;102413.80;110016;1251;20331;-39
2023/05/08 07:32:49;;;;;;;;;7.00;7.00;;;;;21.55;38.80;102409.57;110070;1251;20871;-39
2023/05/08 07:35:17;;;;;;;;;9.00;8.00;;;;;21.47;37.99;102413.92;110045;1259;20027;-39
2023/05/08 07:37:44;;;;;;;;;10.00;10.00;;;;;21.46;38.07;102411.82;110021;1251;20064;-39
2023/05/08 07:40:11;;;;;;;;;7.67;7.67;;;;;21.48;37.88;102408.77;110042;1266;19325;-40
2023/05/08 07:42:39;;;;;;;;;8.00;7.00;;;;;21.45;37.32;102409.73;110065;1253;22354;-39
2023/05/08 07:45:06;;;;;;;;;7.00;7.00;;;;;21.45;37.09;102412.16;110033;1266;19958;-39
2023/05/08 07:47:33;;;;;;;;;7.00;7.00;;;;;21.45;37.06;102412.67;110010;1259;22041;-40
2023/05/08 07:50:01;;;;;;;;;7.00;7.00;;;;;21.47;37.16;102414.44;110023;1259;18427;-41
2023/05/08 07:52:28;;;;;;;;;7.00;7.00;;;;;21.41;36.37;102416.48;110030;1266;18650;-39
2023/05/08 07:54:55;;;;;;;;;12.00;10.00;;;;;21.38;36.42;102410.91;110040;1251;20788;-39
2023/05/08 07:57:23;;;;;;;;;7.00;7.00;;;;;21.40;36.44;102416.01;110056;1250;18647;-41
2023/05/08 07:59:50;;;;;;;;;8.00;7.67;;;;;21.34;36.13;102407.43;110030;1266;19020;-39
2023/05/08 08:02:17;;;;;;;;;10.00;7.00;;;;;21.38;36.09;102409.71;110008;1251;20760;-39
2023/05/08 08:04:45;;;;;;;;;7.00;6.00;;;;;21.39;36.26;102410.80;110036;1267;19664;-39
2023/05/08 08:07:13;;;;;;;;;7.00;7.00;;;;;21.41;35.84;102411.42;110052;1260;18623;-39
2023/05/08 08:09:40;;;;;;;;;7.00;7.00;;;;;21.39;35.69;102413.80;110023;1266;20708;-39
2023/05/08 08:12:08;;;;;;;;;10.00;8.00;;;;;21.30;35.48;102411.85;109980;1260;19286;-40
2023/05/08 08:14:35;;;;;;;;;11.00;10.00;;;;;21.28;35.34;102410.73;110042;1266;20145;-42
2023/05/08 08:17:02;;;;;;;;;8.00;7.00;;;;;21.25;35.13;102416.41;110068;1251;20819;-39
2023/05/08 08:19:30;;;;;;;;;5.00;5.00;;;;;21.20;35.30;102415.09;110061;1266;18560;-39
2023/05/08 08:21:57;;;;;;;;;8.00;7.50;;;;;21.20;35.27;102412.34;110012;1259;21213;-40
2023/05/08 08:24:25;;;;;;;;;10.00;10.00;;;;;21.27;35.27;102411.71;110032;1260;20725;-39
2023/05/08 08:26:52;;;;;;;;;7.00;7.00;;;;;21.31;35.38;102411.41;110030;1266;18420;-39
2023/05/08 08:29:20;;;;;;;;;7.50;7.00;;;;;21.33;35.45;102405.94;110049;1251;20088;-39
2023/05/08 08:31:47;;;;;;;;;10.00;10.00;;;;;21.31;35.18;102402.19;110007;1250;22220;-39
2023/05/08 08:34:14;;;;;;;;;7.00;7.00;;;;;21.29;35.30;102401.77;110033;1251;22210;-39
2023/05/08 08:36:42;;;;;;;;;8.00;8.00;;;;;21.28;35.28;102403.61;110033;1266;18611;-39
2023/05/08 08:39:09;;;;;;;;;10.00;8.00;;;;;21.30;35.18;102396.01;110039;1266;19534;-39
2023/05/08 08:41:36;;;;;;;;;8.00;8.00;;;;;21.29;34.96;102391.90;110008;1251;22732;-39
2023/05/08 08:44:04;;;;;;;;;10.00;10.00;;;;;21.27;34.80;102394.30;109995;1251;22664;-39
2023/05/08 08:46:32;;;;;;;;;8.00;7.00;;;;;21.24;35.01;102390.37;110044;1266;19525;-39
2023/05/08 08:48:59;;;;;;;;;8.00;8.00;;;;;21.28;34.71;102388.21;110015;1251;20071;-39
2023/05/08 08:51:27;;;;;;;;;11.00;8.00;;;;;21.20;34.22;102391.50;109979;1251;18619;-40
2023/05/08 08:53:55;;;;;;;;;8.00;8.00;;;;;21.15;34.43;102390.85;110036;1251;20697;-40
2023/05/08 08:56:22;;;;;;;;;7.00;7.00;;;;;21.22;34.64;102393.34;110043;1266;19980;-39
2023/05/08 08:58:49;;;;;;;;;9.00;8.00;;;;;21.23;34.66;102391.20;110032;1266;18622;-39
2023/05/08 09:01:17;;;;;;;;;8.00;8.00;;;;;21.22;34.96;102387.08;109984;1266;19681;-39
2023/05/08 09:03:44;;;;;;;;;10.00;8.00;;;;;21.26;34.99;102383.27;109969;1251;19631;-39
2023/05/08 09:06:12;;;;;;;;;7.67;7.67;;;;;21.22;34.78;102387.45;110058;1266;18726;-39
2023/05/08 09:08:39;;;;;;;;;9.00;8.00;;;;;21.26;35.10;102389.81;110023;1266;22797;-38
2023/05/08 09:11:06;;;;;;;;;9.00;9.00;;;;;21.26;35.00;102384.92;110011;1251;20963;-39
2023/05/08 09:13:34;;;;;;;;;8.67;7.33;;;;;21.30;35.39;102384.38;109902;1266;19934;-39
2023/05/08 09:16:01;;;;;;;;;8.00;8.00;;;;;21.31;35.44;102380.98;110008;1251;23114;-40
2023/05/08 09:18:28;;;;;;;;;8.00;8.00;;;;;21.33;35.50;102376.11;110058;1254;19674;-39
2023/05/08 09:20:55;;;;;;;;;7.00;7.00;;;;;21.37;35.49;102379.36;110055;1266;18553;-39
2023/05/08 09:23:23;;;;;;;;;10.00;8.00;;;;;21.39;35.30;102379.21;110074;1266;19389;-39
2023/05/08 09:25:50;;;;;;;;;7.00;7.00;;;;;21.37;35.14;102381.54;110053;1251;19649;-39
2023/05/08 09:28:18;;;;;;;;;8.00;8.00;;;;;21.33;34.99;102378.86;110067;1266;20149;-41
2023/05/08 09:30:45;;;;;;;;;8.00;7.00;;;;;21.32;34.80;102381.48;110067;1251;20801;-39
2023/05/08 09:33:12;;;;;;;;;7.00;7.00;;;;;21.30;34.71;102378.73;110069;1251;19694;-39
2023/05/08 09:35:40;;;;;;;;;9.00;9.00;;;;;21.27;34.30;102375.57;110039;1251;19952;-38
2023/05/08 09:38:07;;;;;;;;;8.00;7.00;;;;;21.23;34.22;102370.13;110060;1266;20809;-39
2023/05/08 09:40:35;;;;;;;;;8.00;8.00;;;;;21.21;34.34;102370.65;110036;1266;22804;-38
2023/05/08 09:43:02;;;;;;;;;7.00;7.00;;;;;21.23;34.32;102373.55;110026;1266;18643;-39
2023/05/08 09:45:30;;;;;;;;;8.00;8.00;;;;;21.25;34.28;102370.30;110007;1266;19345;-39
2023/05/08 09:47:57;;;;;;;;;9.00;8.00;;;;;21.20;34.01;102365.52;110010;1250;21159;-39
2023/05/08 09:50:25;;;;;;;;;8.00;8.00;;;;;21.18;33.98;102366.89;110011;1250;20000;-41
2023/05/08 09:52:53;;;;;;;;;5.00;5.00;;;;;21.17;33.95;102366.50;109996;1266;20994;-39
2023/05/08 09:55:20;;;;;;;;;10.00;8.67;;;;;21.17;34.10;102360.71;110024;1266;18437;-38
2023/05/08 09:57:47;;;;;;;;;10.00;10.00;;;;;21.07;33.67;102359.73;110001;1266;20019;-38
2023/05/08 10:00:15;;;;;;;;;10.00;8.00;;;;;21.05;33.56;102360.29;109973;1259;19390;-39
2023/05/08 10:02:42;;;;;;;;;7.00;7.00;;;;;21.07;33.66;102357.54;110042;1266;19997;-39
2023/05/08 10:05:10;;;;;;;;;8.00;8.00;;;;;21.15;33.92;102353.98;110004;1266;19920;-39
2023/05/08 10:07:37;;;;;;;;;7.00;7.00;;;;;21.15;33.97;102350.45;110035;1266;19443;-38
2023/05/08 10:10:05;;;;;;;;;8.00;8.00;;;;;21.11;33.72;102353.57;110041;1250;19695;-39
2023/05/08 10:12:32;;;;;;;;;10.50;10.50;;;;;21.07;33.74;102355.92;110031;1266;20212;-39
2023/05/08 10:15:00;;;;;;;;;8.00;8.00;;;;;21.02;33.79;102353.80;110012;1266;21414;-39
2023/05/08 10:17:27;;;;;;;;;10.00;8.00;;;;;21.04;33.92;102358.53;110029;1251;24010;-39
2023/05/08 10:19:55;;;;;;;;;11.00;10.00;;;;;20.97;34.03;102353.92;110042;1266;18689;-39
2023/05/08 10:22:22;;;;;;;;;10.33;9.33;;;;;21.04;34.08;102353.05;110022;1251;22725;-39
2023/05/08 10:24:50;;;;;;;;;7.50;7.50;;;;;21.10;34.09;102354.77;110005;1266;19970;-40
2023/05/08 10:27:17;;;;;;;;;7.50;7.50;;;;;21.13;34.27;102360.51;110018;1266;18801;-40
2023/05/08 10:29:44;;;;;;;;;10.00;10.00;;;;;21.11;33.86;102354.50;110056;1250;20661;-39
2023/05/08 10:32:13;;;;;;;;;7.00;7.00;;;;;21.02;33.84;102345.83;110011;1266;19428;-40
2023/05/08 10:34:40;;;;;;;;;7.00;7.00;;;;;21.11;34.10;102347.79;110020;1254;19948;-39
2023/05/08 10:37:07;;;;;;;;;7.00;7.00;;;;;21.19;34.21;102345.59;110037;1250;19436;-40
2023/05/08 10:39:35;;;;;;;;;7.00;7.00;;;;;21.24;34.25;102342.04;110063;1254;19683;-40
2023/05/08 10:42:02;;;;;;;;;4.50;4.00;;;;;21.28;34.34;102337.31;110030;1266;22339;-39
2023/05/08 10:44:29;;;;;;;;;5.00;5.00;;;;;21.30;34.58;102339.84;110012;1254;20819;-40
2023/05/08 10:46:57;;;;;;;;;7.00;7.00;;;;;21.31;34.99;102340.34;110029;1254;19612;-41
2023/05/08 10:49:24;;;;;;;;;4.00;4.00;;;;;21.31;35.11;102339.55;110023;1254;21199;-40
2023/05/08 10:51:51;;;;;;;;;6.00;5.00;;;;;21.33;35.18;102340.88;110012;1254;20828;-39
2023/05/08 10:54:20;;;;;;;;;4.00;4.00;;;;;21.32;35.26;102340.33;110024;1253;19651;-40
2023/05/08 10:56:47;;;;;;;;;5.00;5.00;;;;;21.33;35.67;102338.26;110054;1254;20095;-40
2023/05/08 10:59:15;;;;;;;;;4.00;4.00;;;;;21.34;35.71;102331.52;110043;1266;20462;-39
2023/05/08 11:01:42;;;;;;;;;4.00;4.00;;;;;21.35;35.79;102331.73;110012;1253;19728;-40
2023/05/08 11:04:10;;;;;;;;;4.00;4.00;;;;;21.34;36.08;102323.99;110012;1254;20105;-40
2023/05/08 11:06:37;;;;;;;;;2.00;2.00;;;;;21.35;36.32;102324.31;110000;1254;20780;-40
2023/05/08 11:09:04;;;;;;;;;2.00;2.00;;;;;21.35;36.49;102325.90;110047;1254;19647;-40